TimeCST,TemperatureF,Dew PointF,Humidity,Sea Level PressureIn,VisibilityMPH,Wind Direction,Wind SpeedMPH,Gust SpeedMPH,PrecipitationIn,Events,Conditions,WindDirDegrees,DateUTC
12:52 AM,35.1,33.1,92,30.04,7.0,East,5.8,-,N/A,,Clear,90,2012-11-09 06:52:00
1:52 AM,37.0,34.0,89,30.03,7.0,East,5.8,-,N/A,,Partly Cloudy,100,2012-11-09 07:52:00
2:52 AM,41.0,37.9,89,30.02,7.0,East,4.6,-,N/A,,Overcast,90,2012-11-09 08:52:00
3:52 AM,42.1,39.0,89,30.02,7.0,East,4.6,-,N/A,,Overcast,90,2012-11-09 09:52:00
4:52 AM,43.0,39.0,86,30.02,8.0,East,4.6,-,N/A,,Overcast,90,2012-11-09 10:52:00
5:52 AM,44.1,39.0,82,30.02,9.0,SE,5.8,-,N/A,,Overcast,130,2012-11-09 11:52:00
6:52 AM,44.1,39.0,82,30.02,8.0,ESE,5.8,-,N/A,,Overcast,120,2012-11-09 12:52:00
7:52 AM,44.1,39.9,85,30.03,7.0,ESE,3.5,-,N/A,,Partly Cloudy,120,2012-11-09 13:52:00
8:52 AM,46.9,39.9,77,30.02,9.0,SSE,8.1,-,N/A,,Clear,160,2012-11-09 14:52:00
9:52 AM,48.9,41.0,74,30.01,9.0,SSE,5.8,-,N/A,,Overcast,150,2012-11-09 15:52:00
10:52 AM,51.1,42.1,71,30.01,10.0,ESE,4.6,-,N/A,,Overcast,110,2012-11-09 16:52:00
11:52 AM,53.1,43.0,69,29.98,10.0,SE,5.8,-,N/A,,Overcast,140,2012-11-09 17:52:00
12:52 PM,55.0,43.0,64,29.95,10.0,ESE,5.8,-,N/A,,Partly Cloudy,110,2012-11-09 18:52:00
1:52 PM,55.9,44.1,64,29.93,10.0,East,8.1,-,N/A,,Mostly Cloudy,90,2012-11-09 19:52:00
2:52 PM,57.9,46.0,65,29.91,10.0,East,10.4,-,N/A,,Clear,80,2012-11-09 20:52:00
3:52 PM,55.9,46.0,69,29.92,10.0,ESE,9.2,-,N/A,,Clear,110,2012-11-09 21:52:00
4:52 PM,53.1,45.0,74,29.91,9.0,East,9.2,-,N/A,,Clear,80,2012-11-09 22:52:00
5:52 PM,52.0,45.0,77,29.92,9.0,East,8.1,-,N/A,,Scattered Clouds,80,2012-11-09 23:52:00
6:52 PM,52.0,45.0,77,29.91,9.0,ENE,8.1,-,N/A,,Scattered Clouds,60,2012-11-10 00:52:00
7:52 PM,51.1,45.0,80,29.92,9.0,East,9.2,-,N/A,,Clear,80,2012-11-10 01:52:00
8:52 PM,52.0,46.0,80,29.93,9.0,East,11.5,-,N/A,,Overcast,90,2012-11-10 02:52:00
9:52 PM,51.1,46.0,83,29.92,8.0,East,8.1,-,N/A,,Mostly Cloudy,80,2012-11-10 03:52:00
10:52 PM,52.0,46.0,80,29.93,8.0,East,6.9,-,N/A,,Overcast,90,2012-11-10 04:52:00
11:52 PM,53.1,48.0,83,29.91,8.0,East,6.9,-,N/A,,Overcast,100,2012-11-10 05:52:00